Time;durP1;ratioP1;P1;durP2;ratioP2;P2;SDS_P1;SDS_P2;PMS_P1;PMS_P2;Temp;Humidity;BMP_temperature;BMP_pressure;BME280_temperature;BME280_humidity;BME280_pressure;Samples;Min_cycle;Max_cycle;Signal;HPM_P1;HPM_P2
2023/06/11 00:01:26;;;;;;;5.03;4.63;;;18.50;99.90;;;;;;5072678;28;20462;-70
2023/06/11 00:03:54;;;;;;;4.83;4.23;;;18.50;99.90;;;;;;5072440;28;20511;-70
2023/06/11 00:06:23;;;;;;;4.97;4.57;;;18.40;99.90;;;;;;5072764;28;20977;-70
2023/06/11 00:08:51;;;;;;;5.40;4.73;;;18.40;99.90;;;;;;5073009;28;20478;-70
2023/06/11 00:11:18;;;;;;;4.83;4.33;;;18.30;99.90;;;;;;5072211;28;20458;-69
2023/06/11 00:13:45;;;;;;;4.33;3.90;;;18.30;99.90;;;;;;5073324;28;20451;-70
2023/06/11 00:16:13;;;;;;;4.60;4.20;;;18.20;99.90;;;;;;5072516;28;20478;-70
2023/06/11 00:18:41;;;;;;;6.47;4.33;;;18.10;99.90;;;;;;5072593;28;20510;-68
2023/06/11 00:21:10;;;;;;;4.60;4.20;;;18.10;99.90;;;;;;5072242;28;20597;-70
2023/06/11 00:23:37;;;;;;;5.93;5.37;;;18.10;99.90;;;;;;5072691;28;20462;-70
2023/06/11 00:26:05;;;;;;;4.10;3.80;;;18.10;99.90;;;;;;5072790;28;20451;-70
2023/06/11 00:28:31;;;;;;;5.33;4.73;;;18.00;99.90;;;;;;5072500;28;20514;-70
2023/06/11 00:31:00;;;;;;;4.97;4.47;;;18.00;99.90;;;;;;5071948;28;20459;-70
2023/06/11 00:33:26;;;;;;;5.07;4.60;;;17.90;99.90;;;;;;5072643;28;20463;-70
2023/06/11 00:35:53;;;;;;;5.20;4.63;;;17.90;99.90;;;;;;5072372;28;20475;-69
2023/06/11 00:38:22;;;;;;;5.20;4.50;;;17.90;99.90;;;;;;5071963;28;20993;-70
2023/06/11 00:40:48;;;;;;;4.87;4.47;;;17.80;99.90;;;;;;5072187;28;20459;-70
2023/06/11 00:43:17;;;;;;;4.80;4.40;;;17.80;99.90;;;;;;5072084;28;20840;-70
2023/06/11 00:45:45;;;;;;;5.13;4.63;;;17.80;99.90;;;;;;5064007;28;20946;-70
2023/06/11 00:48:11;;;;;;;4.73;4.33;;;17.80;99.90;;;;;;5072087;28;20813;-70
2023/06/11 00:50:45;;;;;;;5.00;4.50;;;17.70;99.90;;;;;;5071793;28;20467;-70
2023/06/11 00:53:12;;;;;;;5.07;4.57;;;17.80;99.90;;;;;;5071783;28;20468;-70
2023/06/11 00:55:40;;;;;;;4.80;4.40;;;17.70;99.90;;;;;;5071787;28;20525;-70
2023/06/11 00:58:13;;;;;;;5.40;4.90;;;17.80;99.90;;;;;;5071874;28;20479;-69
2023/06/11 01:00:40;;;;;;;4.77;4.37;;;17.80;99.90;;;;;;5071511;28;20520;-70
2023/06/11 01:03:12;;;;;;;4.73;4.33;;;17.70;99.90;;;;;;5071486;28;20498;-70
2023/06/11 01:05:43;;;;;;;5.47;4.87;;;17.80;99.90;;;;;;5071874;28;20477;-70
2023/06/11 01:08:12;;;;;;;5.80;4.73;;;17.80;99.90;;;;;;5071616;28;20906;-70
2023/06/11 01:10:41;;;;;;;5.87;5.37;;;17.80;99.90;;;;;;5071219;28;20467;-70
2023/06/11 01:13:08;;;;;;;8.83;5.13;;;17.80;99.90;;;;;;5071468;28;20485;-70
2023/06/11 01:15:34;;;;;;;4.90;4.40;;;17.80;99.90;;;;;;5070293;28;21012;-70
2023/06/11 01:18:10;;;;;;;4.77;4.27;;;17.80;99.90;;;;;;5071511;28;20489;-70
2023/06/11 01:20:41;;;;;;;5.00;4.60;;;17.70;99.90;;;;;;5071317;28;20458;-70
2023/06/11 01:23:21;;;;;;;4.60;4.20;;;17.70;99.90;;;;;;5071102;28;20467;-71
2023/06/11 01:26:16;;;;;;;5.30;4.87;;;17.60;99.90;;;;;;5071457;28;20459;-70
2023/06/11 01:28:46;;;;;;;4.87;4.47;;;17.60;99.90;;;;;;5071283;28;20556;-70
2023/06/11 01:31:15;;;;;;;6.30;5.47;;;17.50;99.90;;;;;;5070939;28;20466;-70
2023/06/11 01:33:42;;;;;;;4.90;4.10;;;17.40;99.90;;;;;;5071120;28;20486;-70
2023/06/11 01:36:10;;;;;;;5.20;4.70;;;17.40;99.90;;;;;;5071034;28;20482;-69
2023/06/11 01:38:41;;;;;;;6.50;5.00;;;17.30;99.90;;;;;;5070839;28;20993;-70
2023/06/11 01:41:08;;;;;;;4.93;4.40;;;17.30;99.90;;;;;;5070664;28;20454;-70
2023/06/11 01:43:35;;;;;;;5.77;5.20;;;17.20;99.90;;;;;;5071106;28;20458;-70
2023/06/11 01:46:03;;;;;;;5.63;5.13;;;17.20;99.90;;;;;;5070773;28;20490;-69
2023/06/11 01:48:30;;;;;;;6.33;5.63;;;17.20;99.90;;;;;;5070807;28;20859;-69
2023/06/11 01:50:57;;;;;;;6.07;5.30;;;17.10;99.90;;;;;;5070337;28;20462;-69
2023/06/11 01:53:24;;;;;;;6.13;5.47;;;17.10;99.90;;;;;;5070764;28;20463;-69
2023/06/11 01:55:51;;;;;;;6.00;5.23;;;17.00;99.90;;;;;;5070963;28;20478;-70
2023/06/11 01:58:18;;;;;;;6.30;5.67;;;17.00;99.90;;;;;;5070753;28;20848;-70
2023/06/11 02:00:47;;;;;;;5.53;5.03;;;17.00;99.90;;;;;;5070251;28;20465;-70
2023/06/11 02:03:15;;;;;;;5.83;5.27;;;16.90;99.90;;;;;;5070408;28;20463;-70
2023/06/11 02:05:42;;;;;;;6.60;5.10;;;16.90;99.90;;;;;;5070716;28;20469;-70
2023/06/11 02:08:09;;;;;;;5.23;4.73;;;16.80;99.90;;;;;;5070354;28;20854;-70
2023/06/11 02:10:36;;;;;;;5.70;5.10;;;16.80;99.90;;;;;;5070296;28;20466;-70
2023/06/11 02:13:02;;;;;;;5.67;5.17;;;16.70;99.90;;;;;;5070216;28;20469;-70
2023/06/11 02:15:29;;;;;;;5.53;5.03;;;16.70;99.90;;;;;;5070535;28;20922;-70
2023/06/11 02:17:56;;;;;;;5.67;5.03;;;16.70;99.90;;;;;;5070349;28;20478;-70
2023/06/11 02:20:24;;;;;;;5.43;4.83;;;16.70;99.90;;;;;;5070247;28;20462;-70
2023/06/11 02:22:50;;;;;;;5.23;4.77;;;16.60;99.90;;;;;;5070244;28;20463;-70
2023/06/11 02:25:17;;;;;;;5.87;5.37;;;16.60;99.90;;;;;;5070031;28;20474;-69
2023/06/11 02:27:44;;;;;;;6.73;5.43;;;16.50;99.90;;;;;;5070112;28;20825;-70
2023/06/11 02:30:11;;;;;;;5.97;5.37;;;16.50;99.90;;;;;;5069907;28;20470;-70
2023/06/11 02:32:39;;;;;;;5.80;5.30;;;16.50;99.90;;;;;;5070164;28;20466;-69
2023/06/11 02:35:07;;;;;;;6.30;5.47;;;16.40;99.90;;;;;;5070068;28;20486;-70
2023/06/11 02:37:35;;;;;;;5.87;5.30;;;16.40;99.90;;;;;;5070004;28;20486;-70
2023/06/11 02:40:02;;;;;;;6.40;5.67;;;16.30;99.90;;;;;;5069917;28;20459;-69
2023/06/11 02:42:29;;;;;;;5.60;5.10;;;16.30;99.90;;;;;;5069881;28;20818;-69
2023/06/11 02:44:55;;;;;;;5.53;4.90;;;16.20;99.90;;;;;;5070111;28;20838;-70
2023/06/11 02:47:22;;;;;;;6.17;5.50;;;16.20;99.90;;;;;;5069962;28;20463;-69
2023/06/11 02:49:49;;;;;;;6.90;5.80;;;16.20;99.90;;;;;;5069844;28;20458;-69
2023/06/11 02:52:15;;;;;;;5.50;5.00;;;16.10;99.90;;;;;;5069605;28;20837;-69
2023/06/11 02:54:43;;;;;;;5.40;4.90;;;16.10;99.90;;;;;;5070134;28;20462;-69
2023/06/11 02:57:10;;;;;;;5.33;4.83;;;16.00;99.90;;;;;;5069807;28;20486;-70
2023/06/11 02:59:37;;;;;;;5.60;5.10;;;16.00;99.90;;;;;;5069539;28;20465;-70
2023/06/11 03:02:04;;;;;;;4.77;4.37;;;16.00;99.90;;;;;;5069610;28;20844;-70
2023/06/11 03:04:30;;;;;;;5.63;5.13;;;15.90;99.90;;;;;;5069800;28;20458;-69
2023/06/11 03:06:57;;;;;;;6.03;5.00;;;15.90;99.90;;;;;;5069720;28;20989;-70
2023/06/11 03:09:24;;;;;;;7.83;6.17;;;15.90;99.90;;;;;;5069777;28;20505;-70
2023/06/11 03:11:52;;;;;;;7.40;6.70;;;15.90;99.90;;;;;;5061400;28;20522;-70
2023/06/11 03:14:20;;;;;;;5.03;4.40;;;15.80;99.90;;;;;;5069787;28;20469;-70
2023/06/11 03:16:47;;;;;;;6.10;5.50;;;15.80;99.90;;;;;;5069594;28;20477;-70
2023/06/11 03:19:15;;;;;;;5.40;4.73;;;15.80;99.90;;;;;;5069802;28;20463;-70
2023/06/11 03:21:42;;;;;;;5.97;5.40;;;15.80;99.90;;;;;;5069282;28;20466;-70
2023/06/11 03:24:08;;;;;;;5.33;4.83;;;15.70;99.90;;;;;;5069675;28;20454;-70
2023/06/11 03:26:35;;;;;;;6.80;5.83;;;15.70;99.90;;;;;;5069570;28;20459;-69
2023/06/11 03:29:03;;;;;;;5.33;4.70;;;15.70;99.90;;;;;;5069588;28;20489;-70
2023/06/11 03:31:30;;;;;;;6.70;5.40;;;15.70;99.90;;;;;;5068987;28;20500;-70
2023/06/11 03:33:56;;;;;;;5.40;4.80;;;15.70;99.90;;;;;;5069733;28;20454;-70
2023/06/11 03:36:23;;;;;;;7.13;5.20;;;15.70;99.90;;;;;;5069601;28;20568;-69
2023/06/11 03:38:50;;;;;;;6.70;5.47;;;15.70;99.90;;;;;;5072258;28;20509;-69
2023/06/11 03:41:17;;;;;;;5.17;4.67;;;15.60;99.90;;;;;;5072728;28;20512;-69
2023/06/11 03:43:44;;;;;;;6.20;5.23;;;15.70;99.90;;;;;;5073232;28;20462;-70
2023/06/11 03:46:12;;;;;;;10.63;5.90;;;15.70;99.90;;;;;;5072917;28;20545;-70
2023/06/11 03:48:39;;;;;;;5.43;4.93;;;15.70;99.90;;;;;;5072982;28;20485;-70
2023/06/11 03:51:05;;;;;;;6.03;5.27;;;15.70;99.90;;;;;;5072675;28;20458;-70
2023/06/11 03:53:33;;;;;;;6.17;5.20;;;15.70;99.90;;;;;;5072919;28;20949;-70
2023/06/11 03:56:00;;;;;;;4.67;4.27;;;15.80;99.90;;;;;;5072755;28;20566;-70
2023/06/11 03:58:26;;;;;;;6.50;5.27;;;15.80;99.90;;;;;;5073106;28;20577;-70
2023/06/11 04:00:54;;;;;;;7.33;5.60;;;15.80;99.90;;;;;;5072684;28;20455;-70
2023/06/11 04:03:22;;;;;;;5.57;5.07;;;15.80;99.90;;;;;;5072805;28;20462;-69
2023/06/11 04:05:48;;;;;;;5.23;4.57;;;15.80;99.90;;;;;;5072741;28;20972;-70
2023/06/11 04:08:15;;;;;;;6.33;5.10;;;15.80;99.90;;;;;;5072645;28;20478;-70
2023/06/11 04:10:42;;;;;;;5.30;4.80;;;15.90;99.90;;;;;;5072283;28;20462;-70
2023/06/11 04:13:08;;;;;;;5.20;4.70;;;15.90;99.90;;;;;;5072418;28;20458;-70
2023/06/11 04:15:35;;;;;;;5.00;4.43;;;15.90;99.90;;;;;;5072632;28;20459;-70
2023/06/11 04:18:02;;;;;;;5.50;4.70;;;15.90;99.90;;;;;;5072462;28;20505;-70
2023/06/11 04:20:31;;;;;;;5.83;5.27;;;16.00;99.90;;;;;;5072634;28;20829;-70
2023/06/11 04:22:58;;;;;;;5.20;4.70;;;16.00;99.90;;;;;;5064402;28;20469;-70
2023/06/11 04:25:25;;;;;;;5.63;5.13;;;16.00;99.90;;;;;;5072614;28;20474;-70
2023/06/11 04:27:52;;;;;;;5.03;4.53;;;16.10;99.90;;;;;;5072384;28;20474;-69
2023/06/11 04:30:20;;;;;;;5.17;4.67;;;16.10;99.90;;;;;;5072342;28;20463;-70
2023/06/11 04:32:47;;;;;;;4.57;4.17;;;16.10;99.90;;;;;;5072132;28;20879;-70
2023/06/11 04:35:14;;;;;;;4.90;4.30;;;16.20;99.90;;;;;;5072316;28;21073;-70
2023/06/11 04:37:42;;;;;;;5.30;4.80;;;16.30;99.90;;;;;;5072101;28;20489;-70
2023/06/11 04:40:10;;;;;;;6.30;4.67;;;16.40;99.90;;;;;;5071946;28;20470;-70
2023/06/11 04:42:40;;;;;;;6.27;5.03;;;16.40;99.90;;;;;;5072404;28;20472;-70
2023/06/11 04:45:09;;;;;;;6.60;4.90;;;16.50;99.90;;;;;;5072389;28;20458;-70
2023/06/11 04:47:36;;;;;;;5.40;4.90;;;16.50;99.90;;;;;;5072203;28;20477;-70
2023/06/11 04:50:05;;;;;;;4.97;4.47;;;16.60;99.90;;;;;;5072204;28;20455;-70
2023/06/11 04:52:34;;;;;;;5.03;4.63;;;16.70;99.90;;;;;;5072181;28;20461;-70
2023/06/11 04:55:03;;;;;;;6.10;5.50;;;16.80;99.90;;;;;;5072236;28;20450;-70
2023/06/11 04:57:32;;;;;;;5.90;4.93;;;16.90;99.90;;;;;;5072237;28;20482;-70
2023/06/11 04:59:58;;;;;;;5.17;4.67;;;16.90;99.90;;;;;;5072012;28;20950;-69
2023/06/11 05:02:26;;;;;;;5.00;4.50;;;17.00;99.90;;;;;;5072236;28;21043;-70
2023/06/11 05:04:54;;;;;;;5.83;4.93;;;17.10;99.90;;;;;;5071970;28;20918;-70
2023/06/11 05:07:21;;;;;;;5.57;5.00;;;17.20;99.90;;;;;;5071899;28;20446;-70
2023/06/11 05:09:48;;;;;;;5.33;4.83;;;17.20;99.90;;;;;;5071802;28;20462;-70
2023/06/11 05:12:16;;;;;;;5.10;4.60;;;17.30;99.90;;;;;;5071601;28;20470;-70
2023/06/11 05:14:43;;;;;;;5.27;4.73;;;17.30;99.90;;;;;;5071538;28;20489;-70
2023/06/11 05:17:10;;;;;;;5.80;5.20;;;17.30;99.90;;;;;;5071422;28;20903;-70
2023/06/11 05:19:36;;;;;;;4.83;4.43;;;17.40;99.90;;;;;;5071248;28;20458;-70
2023/06/11 05:22:03;;;;;;;4.93;4.50;;;17.50;99.90;;;;;;5071165;28;20458;-70
2023/06/11 05:24:30;;;;;;;5.40;4.90;;;17.50;99.90;;;;;;5071521;28;20454;-70
2023/06/11 05:26:57;;;;;;;5.80;4.83;;;17.60;99.90;;;;;;5071319;28;20550;-70
2023/06/11 05:29:26;;;;;;;5.83;5.30;;;17.70;99.90;;;;;;5071212;28;20506;-70
2023/06/11 05:31:53;;;;;;;4.90;4.50;;;17.70;99.90;;;;;;5071155;28;20462;-70
2023/06/11 05:34:19;;;;;;;5.43;4.33;;;17.80;99.90;;;;;;5071312;28;20877;-70
2023/06/11 05:36:48;;;;;;;5.10;4.60;;;17.90;99.90;;;;;;5071012;28;20486;-70
2023/06/11 05:39:14;;;;;;;5.00;4.60;;;17.90;99.90;;;;;;5070503;28;20517;-70
2023/06/11 05:41:41;;;;;;;4.27;3.87;;;18.00;99.90;;;;;;5070487;28;20459;-70
2023/06/11 05:44:08;;;;;;;5.13;4.40;;;18.10;99.90;;;;;;5071129;28;20461;-70
2023/06/11 05:46:36;;;;;;;5.20;4.80;;;18.10;99.90;;;;;;5070771;28;20466;-70
2023/06/11 05:49:03;;;;;;;5.67;5.17;;;18.20;99.90;;;;;;5070788;28;21011;-70
2023/06/11 05:51:30;;;;;;;6.30;4.87;;;18.30;99.90;;;;;;5070533;28;20463;-70
2023/06/11 05:53:59;;;;;;;5.80;5.20;;;18.30;99.90;;;;;;5070558;28;20462;-70
2023/06/11 05:56:26;;;;;;;5.30;4.80;;;18.40;99.90;;;;;;5070921;28;20485;-70
2023/06/11 05:58:52;;;;;;;4.37;3.97;;;18.40;99.90;;;;;;5070457;28;20485;-70
2023/06/11 06:01:21;;;;;;;5.43;4.80;;;18.50;99.90;;;;;;5070059;28;20842;-70
2023/06/11 06:03:49;;;;;;;5.63;5.10;;;18.50;99.90;;;;;;5070451;28;21111;-69
2023/06/11 06:06:16;;;;;;;5.73;5.20;;;18.60;99.90;;;;;;5070937;28;20470;-70
2023/06/11 06:08:42;;;;;;;5.73;5.10;;;18.70;99.90;;;;;;5070259;28;20485;-70
2023/06/11 06:11:09;;;;;;;5.90;4.83;;;18.70;99.90;;;;;;5070251;28;20466;-70
2023/06/11 06:13:36;;;;;;;5.30;4.80;;;18.70;99.90;;;;;;5070827;28;20478;-70
2023/06/11 06:16:03;;;;;;;5.57;5.07;;;18.70;99.90;;;;;;5070425;28;20466;-70
2023/06/11 06:18:29;;;;;;;5.50;4.70;;;18.70;99.90;;;;;;5070570;28;20482;-70
2023/06/11 06:20:57;;;;;;;5.43;4.90;;;18.80;99.90;;;;;;5069969;28;20501;-70
2023/06/11 06:23:24;;;;;;;4.50;4.10;;;18.80;99.90;;;;;;5070526;28;20954;-69
2023/06/11 06:25:51;;;;;;;5.30;4.80;;;18.90;99.90;;;;;;5070077;28;20470;-70
2023/06/11 06:28:17;;;;;;;5.37;4.87;;;19.00;99.90;;;;;;5070288;28;20493;-69
2023/06/11 06:30:44;;;;;;;7.17;4.90;;;19.00;99.90;;;;;;5070005;28;20476;-70
2023/06/11 06:33:11;;;;;;;5.17;4.70;;;19.10;99.90;;;;;;5070163;28;20469;-70
2023/06/11 06:35:39;;;;;;;5.60;4.60;;;19.20;99.90;;;;;;5070099;28;20458;-70
2023/06/11 06:38:07;;;;;;;5.53;4.57;;;19.30;99.90;;;;;;5070144;28;20843;-70
2023/06/11 06:40:33;;;;;;;5.70;5.10;;;19.40;99.90;;;;;;5070255;28;20462;-70
2023/06/11 06:43:00;;;;;;;6.40;4.50;;;19.50;99.90;;;;;;5069594;28;20462;-70
2023/06/11 06:45:27;;;;;;;5.17;4.67;;;19.40;99.90;;;;;;5070209;28;20462;-70
2023/06/11 06:47:54;;;;;;;4.60;4.20;;;19.50;99.90;;;;;;5069862;28;20478;-70
2023/06/11 06:50:20;;;;;;;5.07;4.57;;;19.50;99.90;;;;;;5070107;28;20562;-70
2023/06/11 06:52:47;;;;;;;5.10;4.60;;;19.60;99.90;;;;;;5069703;28;20463;-70
2023/06/11 06:55:15;;;;;;;5.00;4.60;;;19.60;99.90;;;;;;5070385;28;20848;-70
2023/06/11 06:57:42;;;;;;;5.80;5.30;;;19.70;99.90;;;;;;5069794;28;20886;-70
2023/06/11 07:00:10;;;;;;;5.93;4.20;;;19.80;99.90;;;;;;5069811;28;20478;-70
2023/06/11 07:02:37;;;;;;;5.60;5.10;;;19.90;99.90;;;;;;5069857;28;20464;-70
2023/06/11 07:05:04;;;;;;;5.43;4.93;;;20.00;99.90;;;;;;5069919;28;20871;-70
2023/06/11 07:07:31;;;;;;;5.17;4.67;;;20.10;99.90;;;;;;5070155;28;20872;-70
2023/06/11 07:09:57;;;;;;;4.90;4.40;;;20.20;99.90;;;;;;5069508;28;20462;-69
2023/06/11 07:12:25;;;;;;;5.90;5.30;;;20.20;99.90;;;;;;5070541;28;20466;-70
2023/06/11 07:14:52;;;;;;;5.60;5.10;;;20.20;99.90;;;;;;5073605;28;20945;-71
2023/06/11 07:17:21;;;;;;;5.17;4.70;;;20.30;99.90;;;;;;5073966;28;20478;-70
2023/06/11 07:19:47;;;;;;;5.37;4.57;;;20.40;99.90;;;;;;5073759;28;20462;-70
2023/06/11 07:22:14;;;;;;;4.73;4.33;;;20.40;99.90;;;;;;5073517;28;20546;-70
2023/06/11 07:24:45;;;;;;;5.53;5.03;;;20.40;99.90;;;;;;5073621;28;20455;-70
2023/06/11 07:27:11;;;;;;;4.60;4.20;;;20.50;99.90;;;;;;5073757;28;20454;-70
2023/06/11 07:29:39;;;;;;;5.63;4.80;;;20.60;99.90;;;;;;5073758;28;20464;-70
2023/06/11 07:32:07;;;;;;;5.03;4.53;;;20.70;99.90;;;;;;5065417;28;20501;-71
2023/06/11 07:34:34;;;;;;;4.53;4.13;;;20.80;99.90;;;;;;5073630;28;20501;-70
2023/06/11 07:37:01;;;;;;;6.10;5.17;;;20.90;99.90;;;;;;5072924;28;20480;-71
2023/06/11 07:39:27;;;;;;;4.50;4.10;;;21.00;99.90;;;;;;5073233;28;20478;-70
2023/06/11 07:41:54;;;;;;;4.30;4.00;;;21.00;99.90;;;;;;5072620;28;20464;-70
2023/06/11 07:44:21;;;;;;;4.73;4.20;;;21.00;99.90;;;;;;5073239;28;20466;-70
2023/06/11 07:46:49;;;;;;;5.00;4.60;;;21.10;99.90;;;;;;5072967;28;20459;-70
2023/06/11 07:49:16;;;;;;;5.37;4.90;;;21.20;99.90;;;;;;5073089;28;21020;-71
2023/06/11 07:51:44;;;;;;;5.87;4.90;;;21.40;99.90;;;;;;5072490;28;20466;-70
2023/06/11 07:54:11;;;;;;;4.50;4.10;;;21.40;99.90;;;;;;5073298;28;20460;-70
2023/06/11 07:56:38;;;;;;;5.10;4.60;;;21.50;99.90;;;;;;5073314;28;20491;-70
2023/06/11 07:59:05;;;;;;;4.73;4.33;;;21.60;99.90;;;;;;5072518;28;20493;-70
2023/06/11 08:01:32;;;;;;;3.90;3.60;;;21.60;99.90;;;;;;5072732;28;20861;-70
2023/06/11 08:04:00;;;;;;;4.80;3.97;;;21.70;99.90;;;;;;5072875;28;20463;-70
2023/06/11 08:06:26;;;;;;;4.03;3.70;;;21.70;99.90;;;;;;5072865;28;20467;-70
2023/06/11 08:08:53;;;;;;;4.70;4.30;;;21.70;99.90;;;;;;5072516;28;20557;-69
2023/06/11 08:11:20;;;;;;;5.03;4.60;;;21.80;99.90;;;;;;5072519;28;20467;-70
2023/06/11 08:13:46;;;;;;;4.10;3.80;;;21.90;99.90;;;;;;5072818;28;20463;-69
2023/06/11 08:16:15;;;;;;;5.13;4.70;;;21.90;99.90;;;;;;5072800;28;20986;-69
2023/06/11 08:18:42;;;;;;;4.40;4.00;;;22.10;99.90;;;;;;5073058;28;20879;-69
2023/06/11 08:21:10;;;;;;;4.50;4.20;;;22.20;99.90;;;;;;5072214;28;20466;-69
2023/06/11 08:23:37;;;;;;;4.57;4.17;;;22.30;99.90;;;;;;5071765;28;20480;-69
2023/06/11 08:26:03;;;;;;;4.37;3.97;;;22.40;99.90;;;;;;5072407;28;20957;-70
2023/06/11 08:28:30;;;;;;;4.93;4.17;;;22.40;99.90;;;;;;5071955;28;20500;-69
2023/06/11 08:30:57;;;;;;;4.00;3.70;;;22.50;99.90;;;;;;5071641;28;20463;-70
2023/06/11 08:33:24;;;;;;;5.77;4.07;;;22.60;99.90;;;;;;5072495;28;20468;-70
2023/06/11 08:35:51;;;;;;;4.23;3.83;;;22.60;99.90;;;;;;5072040;28;20453;-70
2023/06/11 08:38:19;;;;;;;4.10;3.80;;;22.60;99.90;;;;;;5071208;28;20825;-69
2023/06/11 08:40:46;;;;;;;4.07;3.67;;;22.70;99.90;;;;;;5071887;28;20486;-70
2023/06/11 08:43:13;;;;;;;4.20;3.90;;;22.80;99.90;;;;;;5072076;28;20873;-70
2023/06/11 08:45:40;;;;;;;5.80;4.20;;;22.90;99.90;;;;;;5072352;28;20475;-70
2023/06/11 08:48:09;;;;;;;4.40;4.00;;;23.00;99.90;;;;;;5071848;28;20513;-69
2023/06/11 08:50:37;;;;;;;4.07;3.37;;;23.00;99.90;;;;;;5064878;28;20466;-69
2023/06/11 08:53:04;;;;;;;3.80;3.50;;;23.00;99.90;;;;;;5070575;28;20461;-70
2023/06/11 08:55:33;;;;;;;3.87;3.57;;;23.00;99.90;;;;;;5072212;28;20472;-69
2023/06/11 08:58:00;;;;;;;4.33;3.83;;;23.10;99.90;;;;;;5072153;28;20483;-70
2023/06/11 09:00:27;;;;;;;4.17;3.60;;;23.00;99.90;;;;;;5072009;28;20516;-70
2023/06/11 09:02:54;;;;;;;4.27;3.87;;;23.10;99.90;;;;;;5071845;28;20490;-70
2023/06/11 09:05:22;;;;;;;4.13;3.73;;;23.20;99.90;;;;;;5071857;28;20474;-69
2023/06/11 09:07:50;;;;;;;5.10;3.83;;;23.30;99.90;;;;;;5071605;28;20474;-69
2023/06/11 09:10:17;;;;;;;4.13;3.70;;;23.40;99.90;;;;;;5071670;28;20495;-68
2023/06/11 09:12:45;;;;;;;4.10;3.77;;;23.40;99.90;;;;;;5071658;28;20562;-70
2023/06/11 09:15:13;;;;;;;4.07;3.77;;;23.60;99.90;;;;;;5070802;28;20471;-69
2023/06/11 09:17:42;;;;;;;4.20;3.90;;;23.70;99.90;;;;;;5071481;28;21021;-70
2023/06/11 09:20:11;;;;;;;4.10;3.80;;;23.70;99.90;;;;;;5071038;28;20465;-70
2023/06/11 09:22:38;;;;;;;4.10;3.80;;;23.80;99.90;;;;;;5071675;28;20466;-69
2023/06/11 09:25:07;;;;;;;4.30;3.90;;;23.80;99.90;;;;;;5071091;28;20460;-69
2023/06/11 09:27:34;;;;;;;3.60;3.30;;;23.90;99.90;;;;;;5071416;28;20541;-70
2023/06/11 09:30:10;;;;;;;3.93;3.63;;;24.00;99.90;;;;;;5070906;28;20463;-70
2023/06/11 09:32:40;;;;;;;4.37;3.93;;;24.00;99.90;;;;;;5071312;28;20462;-70
2023/06/11 09:35:08;;;;;;;4.13;3.83;;;24.10;99.90;;;;;;5070045;28;20459;-70
2023/06/11 09:37:43;;;;;;;4.63;4.07;;;24.20;99.90;;;;;;5071199;28;20515;-70
2023/06/11 09:40:12;;;;;;;4.40;4.00;;;24.40;99.70;;;;;;5070805;28;20469;-70
2023/06/11 09:42:40;;;;;;;3.97;3.67;;;24.40;99.80;;;;;;5070934;28;21026;-69
2023/06/11 09:45:17;;;;;;;5.13;3.50;;;24.40;99.30;;;;;;5070477;28;20847;-69
2023/06/11 09:47:46;;;;;;;4.07;3.70;;;24.40;98.50;;;;;;5071074;28;20481;-69
2023/06/11 09:50:14;;;;;;;4.10;3.40;;;24.50;99.90;;;;;;5070362;28;20830;-70
2023/06/11 09:52:42;;;;;;;3.90;3.60;;;24.60;97.30;;;;;;5070751;28;20456;-72
2023/06/11 09:55:10;;;;;;;4.57;4.17;;;24.70;99.20;;;;;;5070556;28;20462;-69
2023/06/11 09:57:38;;;;;;;4.00;3.70;;;24.80;99.30;;;;;;5070680;28;20483;-69
2023/06/11 10:00:09;;;;;;;4.30;3.90;;;24.90;99.90;;;;;;5070272;28;20531;-69
2023/06/11 10:02:38;;;;;;;4.20;3.90;;;24.90;98.70;;;;;;5070670;28;20456;-68
2023/06/11 10:05:07;;;;;;;4.67;3.93;;;24.80;97.40;;;;;;5070394;28;20468;-68
2023/06/11 10:07:38;;;;;;;4.63;4.00;;;24.70;97.80;;;;;;5070716;28;20507;-69
2023/06/11 10:10:07;;;;;;;3.70;3.40;;;24.70;98.00;;;;;;5070309;28;20469;-68
2023/06/11 10:12:34;;;;;;;4.17;3.87;;;24.80;98.00;;;;;;5070438;28;20464;-69
2023/06/11 10:15:03;;;;;;;3.87;3.57;;;25.00;99.00;;;;;;5070267;28;20473;-68
2023/06/11 10:17:29;;;;;;;4.10;3.70;;;25.20;98.70;;;;;;5070288;28;20485;-68
2023/06/11 10:19:58;;;;;;;4.23;3.83;;;25.30;96.50;;;;;;5070186;28;20458;-69
2023/06/11 10:22:33;;;;;;;4.07;3.67;;;25.20;96.30;;;;;;5070219;28;20767;-68
2023/06/11 10:25:01;;;;;;;4.30;3.90;;;25.20;98.00;;;;;;5070144;28;20948;-68
2023/06/11 10:27:45;;;;;;;4.80;4.30;;;25.20;97.70;;;;;;5070461;28;20511;-69
2023/06/11 10:30:24;;;;;;;3.97;3.67;;;25.50;98.00;;;;;;5069916;28;20466;-69
2023/06/11 10:32:53;;;;;;;4.37;3.97;;;25.60;97.60;;;;;;5069455;28;20465;-68
2023/06/11 10:35:25;;;;;;;4.37;3.97;;;25.80;98.60;;;;;;5070049;28;20475;-69
2023/06/11 10:38:01;;;;;;;4.23;3.90;;;26.00;95.90;;;;;;5069683;28;20590;-68
2023/06/11 10:40:32;;;;;;;4.10;3.80;;;25.90;95.60;;;;;;5070170;28;20462;-68
2023/06/11 10:42:59;;;;;;;4.43;4.03;;;25.90;97.40;;;;;;5069830;28;20462;-68
2023/06/11 10:45:34;;;;;;;4.43;4.03;;;26.00;95.30;;;;;;5070008;28;20465;-69
2023/06/11 10:48:01;;;;;;;3.87;3.53;;;26.00;95.10;;;;;;5069535;28;20478;-68
2023/06/11 10:50:31;;;;;;;4.57;4.17;;;26.00;96.10;;;;;;5069983;28;20843;-68
2023/06/11 10:53:01;;;;;;;4.93;4.00;;;26.10;96.80;;;;;;5069649;28;20493;-68
2023/06/11 10:55:29;;;;;;;4.37;3.97;;;26.20;95.60;;;;;;5070620;28;20882;-68
2023/06/11 10:57:57;;;;;;;3.90;3.50;;;26.20;95.50;;;;;;5069720;28;20492;-68
2023/06/11 11:00:28;;;;;;;3.80;3.50;;;26.30;96.60;;;;;;5069916;28;20458;-69
2023/06/11 11:02:56;;;;;;;4.13;3.80;;;26.30;94.20;;;;;;5069625;28;20883;-68
2023/06/11 11:05:23;;;;;;;3.60;3.40;;;26.30;93.90;;;;;;5070029;28;20474;-68
2023/06/11 11:07:53;;;;;;;3.50;3.20;;;26.30;94.30;;;;;;5069978;28;20476;-69
2023/06/11 11:10:24;;;;;;;4.43;4.03;;;26.30;92.70;;;;;;5070071;28;20554;-68
2023/06/11 11:12:51;;;;;;;4.57;4.17;;;26.30;93.80;;;;;;5069771;28;20493;-68
2023/06/11 11:15:18;;;;;;;3.90;3.43;;;26.40;93.90;;;;;;5069510;28;20478;-68
2023/06/11 11:17:46;;;;;;;3.93;3.57;;;26.50;95.30;;;;;;5069821;28;20864;-69
2023/06/11 11:20:17;;;;;;;3.87;3.57;;;26.80;96.00;;;;;;5069296;28;20460;-68
2023/06/11 11:22:51;;;;;;;4.67;4.20;;;26.90;94.80;;;;;;5070026;28;20461;-69
2023/06/11 11:25:21;;;;;;;3.90;3.60;;;27.00;94.00;;;;;;5069675;28;20460;-68
2023/06/11 11:27:48;;;;;;;4.10;3.80;;;27.10;94.50;;;;;;5069759;28;20477;-70
2023/06/11 11:30:16;;;;;;;4.43;3.90;;;27.10;93.60;;;;;;5069095;28;20477;-68
2023/06/11 11:32:43;;;;;;;4.33;3.93;;;27.20;94.40;;;;;;5069536;28;20473;-70
2023/06/11 11:35:12;;;;;;;6.10;3.77;;;27.20;94.10;;;;;;5069401;28;20466;-70
2023/06/11 11:37:39;;;;;;;4.10;3.70;;;27.20;91.30;;;;;;5069557;28;20485;-70
2023/06/11 11:40:07;;;;;;;4.60;4.20;;;27.30;94.60;;;;;;5069368;28;20464;-70
2023/06/11 11:42:49;;;;;;;4.53;4.10;;;27.30;93.70;;;;;;5069661;28;20463;-70
2023/06/11 11:45:17;;;;;;;3.77;3.47;;;27.30;93.40;;;;;;5069275;28;20462;-70
2023/06/11 11:47:46;;;;;;;4.60;3.93;;;27.30;93.00;;;;;;5069677;28;21298;-70
2023/06/11 11:50:21;;;;;;;3.90;3.60;;;27.40;93.90;;;;;;5069311;28;20461;-69
2023/06/11 11:53:01;;;;;;;6.43;3.60;;;27.50;92.60;;;;;;5069435;28;20461;-69
2023/06/11 11:55:29;;;;;;;4.90;4.40;;;27.50;91.80;;;;;;5069589;28;20462;-70
2023/06/11 11:58:06;;;;;;;4.40;4.10;;;27.40;91.80;;;;;;5069349;28;20480;-69
2023/06/11 12:00:34;;;;;;;5.03;4.03;;;27.40;92.10;;;;;;5072888;28;20460;-69
2023/06/11 12:03:07;;;;;;;4.17;3.73;;;27.40;92.20;;;;;;5072896;28;20903;-70
2023/06/11 12:05:34;;;;;;;3.90;3.50;;;27.50;93.60;;;;;;5073128;28;20818;-70
2023/06/11 12:08:01;;;;;;;5.00;3.80;;;27.60;92.10;;;;;;5072746;28;20486;-70
2023/06/11 12:10:28;;;;;;;4.50;4.10;;;27.60;91.90;;;;;;5073113;28;20465;-69
2023/06/11 12:12:54;;;;;;;3.97;3.67;;;27.70;93.40;;;;;;5072865;28;20462;-69
2023/06/11 12:15:22;;;;;;;4.60;3.60;;;27.80;91.60;;;;;;5072880;28;20461;-70
2023/06/11 12:17:51;;;;;;;3.60;3.30;;;27.70;92.40;;;;;;5072691;28;20844;-70
2023/06/11 12:20:18;;;;;;;3.83;3.53;;;27.70;92.20;;;;;;5072438;28;20453;-69
2023/06/11 12:22:45;;;;;;;5.03;3.50;;;27.80;92.90;;;;;;5072430;28;20852;-70
2023/06/11 12:25:12;;;;;;;3.87;3.47;;;28.00;91.60;;;;;;5072551;28;20462;-68
2023/06/11 12:27:39;;;;;;;4.50;4.10;;;28.00;91.10;;;;;;5072585;28;20474;-68
2023/06/11 12:30:07;;;;;;;3.80;3.50;;;27.80;89.90;;;;;;5072028;28;20453;-68
2023/06/11 12:32:35;;;;;;;4.17;3.67;;;27.90;92.30;;;;;;5072388;28;20464;-68
2023/06/11 12:35:02;;;;;;;3.60;3.30;;;28.00;91.80;;;;;;5072324;28;20882;-69
2023/06/11 12:37:30;;;;;;;4.20;3.80;;;28.20;92.80;;;;;;5072436;28;20458;-69
2023/06/11 12:39:57;;;;;;;4.07;3.77;;;28.20;91.20;;;;;;5072264;28;20840;-69
2023/06/11 12:42:24;;;;;;;4.63;4.33;;;28.30;92.30;;;;;;5063966;28;20461;-70
2023/06/11 12:44:51;;;;;;;3.90;3.60;;;28.30;91.80;;;;;;5072145;28;20542;-69
2023/06/11 12:47:18;;;;;;;3.77;3.47;;;28.20;91.70;;;;;;5072239;28;20463;-69
2023/06/11 12:49:46;;;;;;;3.70;3.40;;;28.10;91.10;;;;;;5071981;28;20464;-70
2023/06/11 12:52:13;;;;;;;4.23;3.90;;;28.00;90.00;;;;;;5071888;28;20523;-69